createdAt,value
2023-03-24T00:00:10.179Z,94.56
2023-03-24T00:01:10.214Z,95.12
2023-03-24T00:02:10.212Z,94.60
2023-03-24T00:03:10.255Z,94.71
2023-03-24T00:04:10.205Z,94.60
2023-03-24T00:05:10.120Z,94.51
2023-03-24T00:06:10.120Z,94.60
2023-03-24T00:07:10.113Z,94.81
2023-03-24T00:08:10.092Z,94.92
2023-03-24T00:09:10.085Z,94.92
2023-03-24T00:10:10.064Z,94.92
2023-03-24T00:11:10.068Z,94.51
2023-03-24T00:12:10.049Z,94.60
2023-03-24T00:13:10.054Z,94.60
2023-03-24T00:14:10.023Z,94.30
2023-03-24T00:15:10.049Z,94.40
2023-03-24T00:16:10.101Z,94.92
2023-03-24T00:17:10.017Z,94.40
2023-03-24T00:18:10.007Z,94.81
2023-03-24T00:19:09.966Z,93.99
2023-03-24T00:20:09.978Z,94.10
2023-03-24T00:21:09.952Z,94.20
2023-03-24T00:22:09.946Z,93.99
2023-03-24T00:23:10.425Z,94.60
2023-03-24T00:24:09.922Z,94.60
2023-03-24T00:25:10.006Z,93.69
2023-03-24T00:26:09.912Z,93.69
2023-03-24T00:27:09.884Z,93.28
2023-03-24T00:28:09.882Z,93.89
2023-03-24T00:29:09.869Z,94.30
2023-03-24T00:30:09.857Z,93.99
2023-03-24T00:31:09.897Z,93.59
2023-03-24T00:32:09.825Z,94.51
2023-03-24T00:33:09.953Z,94.40
2023-03-24T00:34:09.802Z,94.40
2023-03-24T00:35:10.431Z,93.89
2023-03-24T00:36:09.848Z,94.40
2023-03-24T00:37:09.798Z,94.30
2023-03-24T00:38:09.773Z,93.99
2023-03-24T00:39:09.748Z,93.89
2023-03-24T00:40:09.736Z,94.10
2023-03-24T00:41:09.758Z,93.69
2023-03-24T00:42:09.717Z,93.79
2023-03-24T00:43:09.721Z,93.59
2023-03-24T00:44:09.695Z,93.79
2023-03-24T00:45:09.678Z,93.69
2023-03-24T00:46:09.666Z,93.79
2023-03-24T00:47:09.666Z,93.89
2023-03-24T00:48:09.748Z,93.99
2023-03-24T00:49:09.651Z,93.48
2023-03-24T00:50:09.622Z,93.65
2023-03-24T00:51:09.626Z,93.79
2023-03-24T00:52:09.635Z,94.10
2023-03-24T00:53:09.639Z,93.69
2023-03-24T00:54:09.627Z,93.79
2023-03-24T00:55:09.568Z,93.65
2023-03-24T00:56:09.554Z,93.69
2023-03-24T00:57:09.582Z,93.59
2023-03-24T00:58:09.535Z,93.74
2023-03-24T00:59:09.544Z,93.89
2023-03-24T01:00:09.533Z,93.79
2023-03-24T01:01:09.652Z,93.89
2023-03-24T01:02:09.541Z,93.69
2023-03-24T01:03:09.501Z,93.89
2023-03-24T01:04:09.463Z,93.69
2023-03-24T01:05:09.460Z,93.79
2023-03-24T01:06:09.649Z,93.99
2023-03-24T01:07:09.441Z,93.69
2023-03-24T01:08:09.482Z,93.74
2023-03-24T01:09:09.402Z,93.95
2023-03-24T01:10:09.403Z,93.99
2023-03-24T01:11:09.479Z,93.69
2023-03-24T01:12:09.373Z,93.65
2023-03-24T01:13:09.573Z,93.74
2023-03-24T01:14:09.369Z,93.65
2023-03-24T01:15:09.339Z,93.74
2023-03-24T01:16:09.341Z,93.89
2023-03-24T01:17:09.317Z,94.10
2023-03-24T01:18:09.325Z,93.74
2023-03-24T01:19:09.518Z,93.85
2023-03-24T01:20:09.287Z,93.74
2023-03-24T01:21:09.271Z,94.06
2023-03-24T01:22:09.272Z,93.74
2023-03-24T01:23:09.246Z,93.79
2023-03-24T01:24:09.253Z,93.65
2023-03-24T01:25:09.226Z,94.06
2023-03-24T01:26:09.216Z,94.15
2023-03-24T01:27:09.220Z,93.44
2023-03-24T01:28:09.193Z,93.65
2023-03-24T01:29:09.176Z,93.54
2023-03-24T01:30:09.270Z,93.44
2023-03-24T01:31:09.169Z,93.85
2023-03-24T01:32:09.166Z,93.54
2023-03-24T01:33:09.141Z,93.33
2023-03-24T01:34:09.132Z,93.65
2023-03-24T01:35:09.414Z,93.85
2023-03-24T01:36:09.180Z,93.54
2023-03-24T01:37:09.943Z,93.33
2023-03-24T01:38:09.088Z,94.15
2023-03-24T01:39:09.069Z,94.06
2023-03-24T01:40:09.079Z,94.06
2023-03-24T01:41:09.060Z,94.15
2023-03-24T01:42:09.093Z,94.15
2023-03-24T01:43:09.024Z,93.95
2023-03-24T01:44:09.020Z,94.15
2023-03-24T01:45:09.034Z,93.29
2023-03-24T01:46:09.066Z,93.44
2023-03-24T01:47:09.247Z,93.19
2023-03-24T01:48:09.047Z,93.65
2023-03-24T01:49:08.965Z,94.06
2023-03-24T01:50:08.986Z,93.44
2023-03-24T01:51:08.947Z,93.65
2023-03-24T01:52:08.926Z,93.74
2023-03-24T01:53:08.948Z,93.74
2023-03-24T01:54:08.905Z,93.54
2023-03-24T01:55:08.905Z,93.74
2023-03-24T01:56:08.899Z,93.44
2023-03-24T01:57:08.966Z,93.65
2023-03-24T01:58:08.873Z,93.85
2023-03-24T01:59:08.848Z,93.44
2023-03-24T02:00:08.861Z,93.54
2023-03-24T02:01:08.895Z,93.24
2023-03-24T02:02:08.814Z,93.13
2023-03-24T02:03:08.804Z,94.15
2023-03-24T02:04:08.892Z,94.06
2023-03-24T02:05:08.807Z,93.95
2023-03-24T02:06:08.775Z,93.95
2023-03-24T02:07:08.756Z,93.95
2023-03-24T02:08:08.757Z,93.74
2023-03-24T02:09:08.733Z,93.74
2023-03-24T02:10:08.765Z,93.54
2023-03-24T02:11:08.746Z,93.54
2023-03-24T02:12:08.720Z,93.85
2023-03-24T02:13:08.690Z,93.70
2023-03-24T02:14:08.689Z,93.91
2023-03-24T02:15:08.671Z,93.70
2023-03-24T02:16:08.752Z,93.65
2023-03-24T02:17:08.663Z,94.06
2023-03-24T02:18:08.705Z,93.80
2023-03-24T02:19:08.624Z,93.65
2023-03-24T02:20:08.631Z,93.70
2023-03-24T02:21:08.619Z,93.70
2023-03-24T02:22:08.597Z,94.11
2023-03-24T02:23:08.584Z,93.40
2023-03-24T02:24:08.570Z,94.21
2023-03-24T02:25:08.610Z,94.11
2023-03-24T02:26:08.544Z,93.40
2023-03-24T02:27:08.551Z,93.19
2023-03-24T02:28:08.543Z,92.88
2023-03-24T02:29:08.533Z,94.11
2023-03-24T02:30:08.698Z,93.70
2023-03-24T02:31:08.501Z,93.91
2023-03-24T02:32:08.617Z,93.40
2023-03-24T02:33:08.549Z,93.50
2023-03-24T02:34:08.461Z,93.50
2023-03-24T02:35:08.471Z,93.29
2023-03-24T02:36:08.575Z,92.78
2023-03-24T02:37:08.429Z,93.50
2023-03-24T02:38:08.429Z,93.09
2023-03-24T02:39:08.416Z,92.58
2023-03-24T02:40:08.394Z,92.78
2023-03-24T02:41:08.430Z,92.58
2023-03-24T02:42:08.400Z,92.88
2023-03-24T02:43:08.373Z,92.68
2023-03-24T02:44:08.415Z,92.64
2023-03-24T02:45:08.346Z,92.74
2023-03-24T02:46:08.377Z,92.07
2023-03-24T02:47:08.318Z,92.13
2023-03-24T02:48:09.986Z,92.74
2023-03-24T02:49:08.303Z,92.64
2023-03-24T02:50:08.275Z,92.84
2023-03-24T02:51:08.278Z,92.68
2023-03-24T02:52:08.287Z,91.92
2023-03-24T02:53:08.241Z,92.27
2023-03-24T02:54:08.232Z,92.54
2023-03-24T02:55:08.239Z,92.94
2023-03-24T02:56:08.206Z,92.58
2023-03-24T02:57:08.253Z,93.25
2023-03-24T02:58:08.195Z,93.45
2023-03-24T02:59:08.177Z,93.35
2023-03-24T03:00:08.197Z,93.76
2023-03-24T03:01:08.194Z,94.17
2023-03-24T03:02:08.162Z,94.37
2023-03-24T03:03:08.137Z,93.66
2023-03-24T03:04:08.153Z,94.07
2023-03-24T03:05:08.262Z,95.39
2023-03-24T03:06:08.201Z,93.25
2023-03-24T03:07:08.177Z,95.09
2023-03-24T03:08:08.291Z,95.29
2023-03-24T03:09:08.236Z,94.78
2023-03-24T03:10:08.208Z,95.19
2023-03-24T03:11:08.146Z,95.19
2023-03-24T03:12:08.156Z,95.09
2023-03-24T03:13:08.095Z,94.37
2023-03-24T03:14:08.973Z,94.68
2023-03-24T03:15:08.977Z,94.68
2023-03-24T03:16:08.077Z,94.48
2023-03-24T03:17:08.069Z,94.68
2023-03-24T03:18:08.597Z,95.09
2023-03-24T03:19:08.470Z,95.29
2023-03-24T03:20:08.097Z,95.09
2023-03-24T03:21:07.993Z,95.50
2023-03-24T03:22:07.942Z,95.09
2023-03-24T03:23:08.040Z,95.29
2023-03-24T03:24:07.945Z,95.09
2023-03-24T03:25:07.895Z,95.09
2023-03-24T03:26:07.920Z,95.29
2023-03-24T03:27:07.871Z,94.89
2023-03-24T03:28:07.936Z,95.19
2023-03-24T03:29:07.857Z,95.50
2023-03-24T03:30:07.831Z,95.39
2023-03-24T03:31:07.868Z,95.39
2023-03-24T03:32:08.135Z,95.80
2023-03-24T03:33:07.867Z,95.50
2023-03-24T03:34:07.816Z,96.01
2023-03-24T03:35:07.787Z,95.70
2023-03-24T03:36:07.798Z,96.21
2023-03-24T03:37:07.788Z,96.11
2023-03-24T03:38:07.757Z,95.39
2023-03-24T03:39:07.737Z,96.01
2023-03-24T03:40:07.740Z,96.31
2023-03-24T03:41:07.733Z,96.42
2023-03-24T03:42:07.740Z,96.42
2023-03-24T03:43:07.715Z,97.03
2023-03-24T03:44:07.672Z,96.31
2023-03-24T03:45:07.682Z,96.42
2023-03-24T03:46:07.667Z,95.80
2023-03-24T03:47:07.647Z,96.31
2023-03-24T03:48:07.713Z,96.11
2023-03-24T03:49:07.632Z,96.31
2023-03-24T03:50:07.710Z,96.67
2023-03-24T03:51:14.010Z,96.92
2023-03-24T03:52:08.594Z,97.38
2023-03-24T03:53:07.713Z,97.17
2023-03-24T03:54:07.566Z,97.03
2023-03-24T03:55:07.565Z,97.03
2023-03-24T03:56:07.598Z,97.17
2023-03-24T03:57:07.621Z,97.33
2023-03-24T03:58:07.619Z,97.49
2023-03-24T03:59:07.563Z,97.49
2023-03-24T04:00:07.533Z,97.17
2023-03-24T04:01:07.541Z,97.95
2023-03-24T04:02:07.549Z,97.85
2023-03-24T04:03:07.634Z,97.49
2023-03-24T04:04:07.534Z,97.69
2023-03-24T04:05:07.444Z,97.85
2023-03-24T04:06:07.480Z,97.89
2023-03-24T04:07:07.429Z,98.25
2023-03-24T04:08:07.419Z,97.64
2023-03-24T04:09:07.414Z,98.25
2023-03-24T04:10:07.390Z,98.25
2023-03-24T04:11:07.371Z,98.15
2023-03-24T04:12:07.415Z,98.71
2023-03-24T04:13:07.353Z,98.46
2023-03-24T04:14:07.346Z,98.36
2023-03-24T04:15:07.349Z,98.25
2023-03-24T04:16:07.370Z,98.56
2023-03-24T04:17:07.678Z,98.25
2023-03-24T04:18:07.318Z,98.15
2023-03-24T04:19:07.291Z,98.25
2023-03-24T04:20:07.322Z,98.46
2023-03-24T04:21:07.263Z,98.61
2023-03-24T04:22:07.280Z,98.86
2023-03-24T04:23:07.263Z,98.81
2023-03-24T04:24:07.316Z,98.66
2023-03-24T04:25:07.219Z,98.81
2023-03-24T04:26:07.209Z,98.40
2023-03-24T04:27:07.209Z,98.61
2023-03-24T04:28:07.197Z,98.81
2023-03-24T04:29:07.180Z,98.91
2023-03-24T04:30:07.154Z,98.91
2023-03-24T04:31:07.182Z,98.71
2023-03-24T04:32:07.145Z,98.91
2023-03-24T04:33:07.179Z,99.22
2023-03-24T04:34:07.112Z,99.02
2023-03-24T04:35:07.122Z,98.56
2023-03-24T04:36:07.214Z,98.86
2023-03-24T04:37:07.088Z,98.86
2023-03-24T04:38:07.068Z,98.77
2023-03-24T04:39:07.077Z,98.86
2023-03-24T04:40:07.078Z,98.91
2023-03-24T04:41:07.046Z,98.77
2023-03-24T04:42:07.034Z,98.77
2023-03-24T04:43:07.016Z,99.58
2023-03-24T04:44:07.022Z,98.86
2023-03-24T04:45:06.998Z,98.77
2023-03-24T04:46:07.033Z,98.91
2023-03-24T04:47:06.985Z,98.91
2023-03-24T04:48:06.976Z,98.77
2023-03-24T04:49:06.947Z,98.77
2023-03-24T04:50:06.946Z,98.61
2023-03-24T04:51:06.937Z,98.97
2023-03-24T04:52:06.946Z,98.46
2023-03-24T04:53:07.500Z,98.97
2023-03-24T04:54:06.916Z,98.77
2023-03-24T04:55:06.936Z,98.86
2023-03-24T04:56:06.867Z,98.46
2023-03-24T04:57:06.929Z,98.56
2023-03-24T04:58:06.869Z,98.66
2023-03-24T04:59:06.850Z,98.66
2023-03-24T05:00:06.862Z,98.21
2023-03-24T05:01:06.844Z,98.15
2023-03-24T05:02:06.831Z,98.25
2023-03-24T05:03:06.842Z,98.15
2023-03-24T05:04:06.796Z,98.25
2023-03-24T05:05:06.821Z,98.46
2023-03-24T05:06:06.767Z,97.64
2023-03-24T05:07:07.058Z,98.21
2023-03-24T05:08:06.743Z,98.52
2023-03-24T05:09:06.717Z,98.00
2023-03-24T05:10:06.709Z,98.52
2023-03-24T05:11:06.713Z,98.61
2023-03-24T05:12:06.708Z,98.00
2023-03-24T05:13:06.674Z,98.61
2023-03-24T05:14:06.664Z,97.60
2023-03-24T05:15:06.680Z,97.60
2023-03-24T05:16:06.650Z,98.21
2023-03-24T05:17:06.642Z,98.00
2023-03-24T05:18:06.649Z,98.16
2023-03-24T05:19:06.626Z,98.21
2023-03-24T05:20:06.611Z,98.36
2023-03-24T05:21:06.609Z,98.27
2023-03-24T05:22:06.573Z,98.11
2023-03-24T05:23:06.557Z,98.27
2023-03-24T05:24:06.570Z,97.65
2023-03-24T05:25:06.543Z,97.80
2023-03-24T05:26:06.548Z,97.55
2023-03-24T05:27:06.532Z,97.86
2023-03-24T05:28:06.503Z,97.65
2023-03-24T05:29:06.498Z,97.34
2023-03-24T05:30:06.494Z,97.45
2023-03-24T05:31:07.023Z,97.55
2023-03-24T05:32:06.463Z,97.34
2023-03-24T05:33:06.503Z,97.34
2023-03-24T05:34:06.436Z,97.04
2023-03-24T05:35:06.462Z,96.69
2023-03-24T05:36:06.463Z,96.79
2023-03-24T05:37:06.405Z,96.79
2023-03-24T05:38:06.427Z,96.08
2023-03-24T05:39:06.443Z,96.59
2023-03-24T05:40:06.390Z,96.38
2023-03-24T05:41:06.425Z,95.97
2023-03-24T05:42:06.397Z,95.97
2023-03-24T05:43:07.061Z,95.97
2023-03-24T05:44:06.357Z,95.87
2023-03-24T05:45:06.322Z,95.77
2023-03-24T05:46:06.319Z,95.83
2023-03-24T05:47:06.289Z,95.52
2023-03-24T05:48:06.357Z,95.62
2023-03-24T05:49:06.285Z,95.52
2023-03-24T05:50:06.284Z,95.36
2023-03-24T05:51:06.244Z,95.06
2023-03-24T05:52:06.231Z,95.16
2023-03-24T05:53:06.228Z,95.32
2023-03-24T05:54:06.384Z,94.91
2023-03-24T05:55:06.230Z,94.91
2023-03-24T05:56:06.216Z,94.91
2023-03-24T05:57:06.254Z,95.01
2023-03-24T05:58:06.169Z,95.01
2023-03-24T05:59:06.160Z,95.12
2023-03-24T06:00:06.284Z,94.91
2023-03-24T06:01:06.153Z,95.01
2023-03-24T06:02:06.174Z,94.81
2023-03-24T06:03:06.483Z,95.01
2023-03-24T06:04:06.187Z,95.01
2023-03-24T06:05:06.102Z,94.81
2023-03-24T06:06:06.103Z,94.91
2023-03-24T06:07:06.070Z,95.12
2023-03-24T06:08:06.057Z,94.81
2023-03-24T06:09:06.061Z,94.97
2023-03-24T06:10:06.042Z,95.17
2023-03-24T06:11:06.039Z,95.21
2023-03-24T06:12:06.033Z,95.17
2023-03-24T06:13:05.998Z,95.17
2023-03-24T06:14:06.006Z,95.01
2023-03-24T06:15:06.002Z,94.97
2023-03-24T06:16:05.979Z,94.87
2023-03-24T06:17:05.953Z,94.76
2023-03-24T06:18:05.965Z,95.07
2023-03-24T06:19:05.930Z,95.07
2023-03-24T06:20:05.946Z,94.97
2023-03-24T06:21:05.977Z,95.17
2023-03-24T06:22:05.900Z,94.76
2023-03-24T06:23:05.903Z,94.35
2023-03-24T06:24:05.879Z,94.46
2023-03-24T06:25:05.877Z,94.05
2023-03-24T06:26:05.850Z,93.85
2023-03-24T06:27:05.841Z,93.74
2023-03-24T06:28:05.954Z,94.01
2023-03-24T06:29:05.821Z,93.64
2023-03-24T06:30:05.834Z,93.90
2023-03-24T06:31:05.838Z,93.50
2023-03-24T06:32:05.785Z,94.11
2023-03-24T06:33:08.094Z,93.80
2023-03-24T06:34:05.779Z,93.29
2023-03-24T06:35:05.799Z,93.66
2023-03-24T06:36:05.807Z,93.35
2023-03-24T06:37:05.731Z,93.25
2023-03-24T06:38:05.724Z,93.66
2023-03-24T06:39:05.767Z,93.45
2023-03-24T06:40:05.723Z,93.60
2023-03-24T06:41:05.714Z,93.66
2023-03-24T06:42:05.693Z,93.60
2023-03-24T06:43:05.776Z,93.45
2023-03-24T06:44:05.675Z,93.66
2023-03-24T06:45:05.655Z,93.76
2023-03-24T06:46:05.721Z,93.45
2023-03-24T06:47:05.635Z,93.76
2023-03-24T06:48:05.660Z,93.45
2023-03-24T06:49:05.598Z,93.55
2023-03-24T06:50:05.622Z,93.35
2023-03-24T06:51:05.594Z,93.66
2023-03-24T06:52:05.564Z,93.55
2023-03-24T06:53:05.556Z,92.84
2023-03-24T06:54:05.545Z,93.25
2023-03-24T06:55:05.536Z,93.35
2023-03-24T06:56:05.546Z,93.66
2023-03-24T06:57:05.558Z,93.21
2023-03-24T06:58:05.500Z,93.21
2023-03-24T06:59:05.529Z,93.45
2023-03-24T07:00:05.498Z,93.55
2023-03-24T07:01:05.466Z,93.05
2023-03-24T07:02:05.556Z,93.10
2023-03-24T07:03:05.508Z,93.31
2023-03-24T07:04:05.494Z,92.90
2023-03-24T07:05:05.419Z,92.29
2023-03-24T07:06:05.413Z,92.40
2023-03-24T07:07:30.910Z,92.35
2023-03-24T07:08:34.074Z,92.49
2023-03-24T07:09:06.379Z,92.09
2023-03-24T07:10:05.369Z,92.25
2023-03-24T07:11:05.421Z,92.45
2023-03-24T07:12:05.343Z,91.43
2023-03-24T07:13:05.348Z,91.43
2023-03-24T07:14:06.122Z,91.43
2023-03-24T07:15:05.347Z,90.99
2023-03-24T07:16:05.347Z,91.49
2023-03-24T07:17:05.286Z,90.37
2023-03-24T07:18:05.305Z,90.99
2023-03-24T07:19:05.277Z,90.27
2023-03-24T07:20:05.258Z,90.58
2023-03-24T07:21:05.282Z,90.27
2023-03-24T07:22:05.231Z,90.78
2023-03-24T07:23:05.310Z,91.49
2023-03-24T07:24:05.228Z,91.84
2023-03-24T07:25:05.196Z,91.53
2023-03-24T07:26:05.195Z,91.19
2023-03-24T07:27:05.172Z,91.39
2023-03-24T07:28:05.175Z,91.45
2023-03-24T07:29:05.147Z,91.20
2023-03-24T07:30:05.277Z,89.84
2023-03-24T07:31:05.195Z,89.78
2023-03-24T07:32:05.141Z,89.03
2023-03-24T07:33:05.140Z,88.73
2023-03-24T07:34:05.089Z,88.28
2023-03-24T07:35:05.184Z,87.46
2023-03-24T07:36:05.184Z,87.43
2023-03-24T07:37:05.076Z,86.88
2023-03-24T07:38:05.052Z,85.31
2023-03-24T07:39:05.035Z,82.93
2023-03-24T07:40:05.040Z,79.38
2023-03-24T07:41:05.016Z,76.71
2023-03-24T07:42:05.004Z,73.52
2023-03-24T07:43:05.563Z,73.52
2023-03-24T07:44:04.994Z,73.65
2023-03-24T07:45:04.973Z,75.16
2023-03-24T07:46:05.072Z,76.48
2023-03-24T07:47:04.962Z,79.63
2023-03-24T07:48:05.002Z,81.09
2023-03-24T07:49:18.166Z,82.34
2023-03-24T07:50:05.917Z,83.63
2023-03-24T07:51:04.919Z,84.34
2023-03-24T07:52:05.547Z,84.34
2023-03-24T07:53:04.898Z,85.05
2023-03-24T07:54:05.553Z,84.38
2023-03-24T07:55:05.319Z,84.99
2023-03-24T07:56:04.860Z,85.94
2023-03-24T07:57:04.848Z,87.00
2023-03-24T07:58:04.828Z,88.62
2023-03-24T07:59:04.836Z,88.93
2023-03-24T08:00:04.807Z,89.88
2023-03-24T08:01:04.816Z,90.29
2023-03-24T08:02:04.944Z,90.49
2023-03-24T08:03:04.938Z,93.54
2023-03-24T08:04:04.872Z,91.65
2023-03-24T08:05:04.760Z,91.65
2023-03-24T08:06:04.737Z,92.91
2023-03-24T08:07:04.737Z,93.22
2023-03-24T08:08:04.716Z,92.91
2023-03-24T08:09:04.703Z,92.21
2023-03-24T08:10:04.693Z,93.02
2023-03-24T08:11:04.691Z,92.82
2023-03-24T08:12:17.378Z,93.02
2023-03-24T08:13:05.805Z,93.02
2023-03-24T08:14:04.645Z,93.12
2023-03-24T08:15:04.634Z,93.06
2023-03-24T08:16:04.629Z,93.02
2023-03-24T08:17:04.886Z,93.73
2023-03-24T08:18:04.628Z,93.77
2023-03-24T08:19:04.597Z,93.37
2023-03-24T08:20:05.975Z,94.08
2023-03-24T08:21:04.578Z,94.28
2023-03-24T08:22:04.576Z,94.69
2023-03-24T08:23:04.643Z,94.89
2023-03-24T08:24:04.535Z,95.20
2023-03-24T08:25:04.535Z,95.30
2023-03-24T08:26:04.517Z,95.00
2023-03-24T08:27:04.497Z,94.69
2023-03-24T08:28:04.497Z,94.69
2023-03-24T08:29:04.480Z,94.93
2023-03-24T08:30:04.699Z,94.79
2023-03-24T08:31:04.476Z,94.89
2023-03-24T08:32:04.628Z,94.59
2023-03-24T08:33:04.465Z,94.84
2023-03-24T08:34:04.423Z,93.77
2023-03-24T08:35:04.425Z,94.89
2023-03-24T08:36:04.463Z,94.89
2023-03-24T08:37:04.384Z,93.77
2023-03-24T08:38:06.881Z,93.77
2023-03-24T08:39:04.369Z,93.06
2023-03-24T08:40:04.384Z,93.67
2023-03-24T08:41:04.337Z,93.16
2023-03-24T08:42:04.327Z,93.67
2023-03-24T08:43:04.326Z,93.06
2023-03-24T08:44:06.835Z,93.06
2023-03-24T08:45:04.308Z,93.06
2023-03-24T08:46:04.296Z,93.26
2023-03-24T08:47:04.275Z,93.26
2023-03-24T08:48:04.293Z,93.16
2023-03-24T08:49:04.408Z,93.06
2023-03-24T08:50:04.249Z,93.67
2023-03-24T08:51:04.267Z,93.47
2023-03-24T08:52:04.238Z,92.96
2023-03-24T08:53:04.212Z,93.37
2023-03-24T08:54:04.188Z,93.77
2023-03-24T08:55:04.198Z,92.76
2023-03-24T08:56:04.199Z,93.26
2023-03-24T08:57:04.197Z,93.57
2023-03-24T08:58:04.160Z,92.86
2023-03-24T08:59:04.147Z,92.96
2023-03-24T09:00:04.122Z,93.12
2023-03-24T09:01:04.111Z,92.96
2023-03-24T09:02:04.120Z,93.06
2023-03-24T09:03:04.300Z,93.16
2023-03-24T09:04:04.089Z,92.45
2023-03-24T09:05:04.183Z,92.61
2023-03-24T09:06:04.058Z,92.00
2023-03-24T09:07:04.038Z,92.21
2023-03-24T09:08:04.095Z,91.49
2023-03-24T09:09:04.021Z,91.60
2023-03-24T09:10:04.017Z,91.49
2023-03-24T09:11:04.006Z,91.60
2023-03-24T09:12:04.000Z,91.49
2023-03-24T09:13:03.974Z,91.49
2023-03-24T09:14:03.974Z,91.19
2023-03-24T09:15:03.964Z,91.60
2023-03-24T09:16:03.962Z,91.49
2023-03-24T09:17:04.012Z,90.78
2023-03-24T09:18:03.978Z,90.27
2023-03-24T09:19:03.916Z,90.88
2023-03-24T09:20:03.893Z,90.78
2023-03-24T09:21:03.884Z,90.58
2023-03-24T09:22:03.890Z,90.48
2023-03-24T09:23:03.874Z,90.37
2023-03-24T09:24:03.888Z,90.37
2023-03-24T09:25:03.831Z,90.48
2023-03-24T09:26:03.825Z,90.68
2023-03-24T09:27:03.814Z,90.78
2023-03-24T09:28:03.802Z,90.78
2023-03-24T09:29:03.815Z,90.78
2023-03-24T09:30:03.788Z,90.78
2023-03-24T09:31:03.883Z,90.78
2023-03-24T09:32:03.758Z,90.33
2023-03-24T09:33:03.844Z,90.78
2023-03-24T09:34:04.288Z,90.74
2023-03-24T09:35:03.745Z,90.44
2023-03-24T09:36:03.732Z,90.44
2023-03-24T09:37:03.708Z,90.53
2023-03-24T09:38:03.713Z,90.78
2023-03-24T09:39:03.813Z,90.74
2023-03-24T09:40:03.722Z,90.74
2023-03-24T09:41:03.849Z,89.92
2023-03-24T09:42:03.640Z,89.78
2023-03-24T09:43:03.626Z,89.78
2023-03-24T09:44:03.642Z,89.48
2023-03-24T09:45:03.612Z,89.43
2023-03-24T09:46:03.593Z,87.87
2023-03-24T09:47:03.658Z,86.61
2023-03-24T09:48:03.585Z,84.81
2023-03-24T09:49:03.567Z,83.41
2023-03-24T09:50:03.578Z,82.02
2023-03-24T09:51:03.625Z,79.96
2023-03-24T09:52:03.547Z,79.62
2023-03-24T09:53:03.533Z,78.67
2023-03-24T09:54:03.501Z,77.86
2023-03-24T09:55:11.131Z,78.17
2023-03-24T09:56:03.487Z,79.01
2023-03-24T09:57:03.511Z,79.35
2023-03-24T09:58:03.464Z,79.55
2023-03-24T09:59:03.453Z,78.77
2023-03-24T10:00:04.141Z,76.92
2023-03-24T10:01:03.500Z,77.56
2023-03-24T10:02:03.435Z,78.75
2023-03-24T10:03:03.448Z,80.20
2023-03-24T10:04:03.674Z,80.64
2023-03-24T10:05:03.390Z,80.84
2023-03-24T10:06:03.390Z,81.35
2023-03-24T10:07:03.356Z,81.29
2023-03-24T10:08:03.351Z,81.76
2023-03-24T10:09:03.338Z,81.99
2023-03-24T10:10:03.411Z,82.40
2023-03-24T10:11:03.351Z,82.20
2023-03-24T10:12:03.312Z,82.24
2023-03-24T10:13:03.392Z,82.03
2023-03-24T10:14:04.391Z,82.64
2023-03-24T10:15:03.272Z,82.95
2023-03-24T10:16:03.263Z,82.10
2023-03-24T10:17:03.267Z,81.99
2023-03-24T10:18:03.272Z,81.69
2023-03-24T10:19:04.079Z,80.47
2023-03-24T10:20:03.214Z,79.67
2023-03-24T10:21:03.202Z,80.18
2023-03-24T10:22:03.273Z,80.41
2023-03-24T10:23:03.191Z,80.01
2023-03-24T10:24:03.358Z,79.60
2023-03-24T10:25:03.262Z,79.50
2023-03-24T10:26:03.147Z,80.11
2023-03-24T10:27:03.230Z,79.40
2023-03-24T10:28:03.141Z,79.60
2023-03-24T10:29:03.132Z,79.40
2023-03-24T10:30:03.111Z,79.40
2023-03-24T10:31:03.235Z,79.50
2023-03-24T10:32:03.166Z,79.80
2023-03-24T10:33:03.122Z,80.01
2023-03-24T10:34:03.060Z,80.11
2023-03-24T10:35:03.049Z,80.55
2023-03-24T10:36:03.639Z,80.86
2023-03-24T10:37:03.080Z,81.06
2023-03-24T10:38:03.042Z,81.32
2023-03-24T10:39:12.840Z,80.44
2023-03-24T10:40:04.013Z,78.99
2023-03-24T10:41:03.073Z,77.46
2023-03-24T10:42:02.985Z,75.84
2023-03-24T10:43:06.774Z,75.07
2023-03-24T10:44:03.966Z,74.87
2023-03-24T10:45:02.951Z,73.82
2023-03-24T10:46:02.947Z,73.58
2023-03-24T10:47:02.915Z,72.94
2023-03-24T10:48:02.994Z,72.74
2023-03-24T10:49:02.915Z,72.74
2023-03-24T10:50:12.816Z,73.14
2023-03-24T10:51:03.876Z,72.91
2023-03-24T10:52:02.871Z,71.50
2023-03-24T10:53:02.875Z,71.30
2023-03-24T10:54:03.433Z,72.00
2023-03-24T10:55:02.837Z,71.67
2023-03-24T10:56:02.823Z,72.61
2023-03-24T10:57:02.871Z,74.05
2023-03-24T10:58:02.814Z,74.09
2023-03-24T10:59:02.803Z,75.04
2023-03-24T11:00:02.959Z,75.10
2023-03-24T11:01:02.881Z,75.13
2023-03-24T11:02:02.783Z,74.93
2023-03-24T11:03:02.888Z,75.27
2023-03-24T11:04:02.724Z,75.17
2023-03-24T11:05:02.711Z,75.37
2023-03-24T11:06:02.705Z,75.48
2023-03-24T11:07:02.803Z,75.81
2023-03-24T11:08:02.690Z,75.71
2023-03-24T11:09:02.675Z,75.71
2023-03-24T11:10:02.672Z,75.81
2023-03-24T11:11:02.646Z,75.71
2023-03-24T11:12:02.651Z,75.51
2023-03-24T11:13:02.655Z,75.31
2023-03-24T11:14:02.807Z,75.92
2023-03-24T11:15:14.182Z,75.71
2023-03-24T11:16:04.142Z,75.10
2023-03-24T11:17:02.622Z,74.90
2023-03-24T11:18:02.610Z,75.01
2023-03-24T11:19:02.549Z,75.01
2023-03-24T11:20:02.544Z,74.97
2023-03-24T11:21:02.536Z,74.37
2023-03-24T11:22:02.539Z,73.62
2023-03-24T11:23:02.536Z,73.18
2023-03-24T11:24:02.513Z,73.49
2023-03-24T11:25:02.496Z,71.84
2023-03-24T11:26:02.471Z,71.13
2023-03-24T11:27:02.519Z,69.15
2023-03-24T11:28:02.483Z,67.91
2023-03-24T11:29:02.468Z,67.14
2023-03-24T11:30:02.458Z,64.94
2023-03-24T11:31:02.530Z,61.81
2023-03-24T11:32:02.412Z,61.87
2023-03-24T11:33:02.445Z,63.26
2023-03-24T11:34:02.384Z,63.19
2023-03-24T11:35:02.370Z,64.33
2023-03-24T11:36:05.969Z,64.13
2023-03-24T11:37:02.390Z,65.03
2023-03-24T11:38:02.374Z,64.23
2023-03-24T11:39:02.343Z,65.26
2023-03-24T11:40:02.321Z,64.53
2023-03-24T11:41:02.313Z,63.39
2023-03-24T11:42:02.293Z,63.70
2023-03-24T11:43:02.434Z,63.49
2023-03-24T11:44:02.298Z,62.10
2023-03-24T11:45:02.342Z,59.83
2023-03-24T11:46:02.325Z,58.15
2023-03-24T11:47:02.275Z,57.95
2023-03-24T11:48:02.288Z,58.28
2023-03-24T11:49:02.224Z,59.36
2023-03-24T11:50:02.227Z,60.52
2023-03-24T11:51:02.209Z,60.62
2023-03-24T11:52:02.180Z,61.29
2023-03-24T11:53:02.172Z,61.91
2023-03-24T11:54:02.167Z,62.59
2023-03-24T11:55:02.165Z,61.38
2023-03-24T11:56:02.158Z,62.29
2023-03-24T11:57:02.218Z,62.55
2023-03-24T11:58:02.116Z,63.15
2023-03-24T11:59:02.115Z,63.08
2023-03-24T12:00:02.097Z,63.45
2023-03-24T12:01:02.102Z,63.31
2023-03-24T12:02:02.089Z,64.25
2023-03-24T12:03:02.209Z,64.78
2023-03-24T12:04:02.166Z,65.39
2023-03-24T12:05:02.040Z,65.56
2023-03-24T12:06:02.125Z,65.09
2023-03-24T12:07:02.040Z,65.56
2023-03-24T12:08:02.008Z,65.79
2023-03-24T12:09:01.995Z,65.52
2023-03-24T12:10:01.992Z,65.82
2023-03-24T12:11:01.978Z,66.46
2023-03-24T12:12:08.213Z,67.80
2023-03-24T12:13:02.950Z,66.69
2023-03-24T12:14:01.951Z,67.80
2023-03-24T12:15:01.929Z,66.59
2023-03-24T12:16:01.950Z,67.70
2023-03-24T12:17:01.914Z,67.70
2023-03-24T12:18:01.978Z,67.80
2023-03-24T12:19:01.905Z,67.90
2023-03-24T12:20:01.899Z,67.97
2023-03-24T12:21:01.866Z,68.57
2023-03-24T12:22:01.862Z,67.67
2023-03-24T12:23:01.848Z,67.47
2023-03-24T12:24:01.827Z,67.36
2023-03-24T12:25:01.842Z,68.48
2023-03-24T12:26:01.812Z,67.36
2023-03-24T12:27:01.836Z,67.43
2023-03-24T12:28:01.816Z,67.23
2023-03-24T12:29:01.794Z,67.23
2023-03-24T12:30:01.786Z,66.73
2023-03-24T12:31:01.760Z,65.82
2023-03-24T12:32:01.743Z,66.86
2023-03-24T12:33:01.854Z,67.03
2023-03-24T12:34:01.778Z,66.53
2023-03-24T12:35:01.720Z,67.13
2023-03-24T12:36:01.739Z,67.43
2023-03-24T12:37:01.699Z,67.33
2023-03-24T12:38:01.668Z,67.36
2023-03-24T12:39:01.659Z,66.96
2023-03-24T12:40:01.688Z,67.97
2023-03-24T12:41:01.660Z,67.30
2023-03-24T12:42:01.697Z,67.30
2023-03-24T12:43:01.613Z,67.87
2023-03-24T12:44:01.652Z,67.30
2023-03-24T12:45:01.607Z,64.58
2023-03-24T12:46:01.642Z,64.47
2023-03-24T12:47:01.568Z,64.40
2023-03-24T12:48:01.653Z,64.00
2023-03-24T12:49:01.549Z,63.42
2023-03-24T12:50:01.538Z,64.43
2023-03-24T12:51:01.552Z,64.43
2023-03-24T12:52:01.679Z,64.43